North Platte, NE

3:27 PM CDT on May 23, 2017 (GMT -0500)
K0KDC North Platte | | Change Station

Elev 2808 ft 41.14 °N, 100.77 °W | Updated 21 seconds ago

Overcast
Overcast
53.8 °F
Feels Like 53.8 °F
N
12.0
Wind Variable Wind from NNW
Gusts 24.0 mph

Today
High -- | Low -- °F
--% Chance of Precip.
Yesterday
High -- | Low -- °F
Precip. -- in
Pressure 30.02 in
Visibility 10.0 miles
Clouds Overcast 7000 ft
Dew Point 37 °F
Humidity 53%
Rainfall 0.00 in
Snow Depth Not available.
6:17 AM 9:02 PM
Waning Crescent, 6% visible
METAR KLBF 231953Z AUTO 36021G28KT 10SM OVC070 13/02 A3002 RMK AO2 PK WND 35030/1931 SLP166 T01330017
Pressure 30.02 in
Visibility 10.0 miles
Clouds Overcast 7000 ft
Dew Point 37 °F
Humidity 53%
Rainfall 0.00 in
Snow Depth Not available.
6:17 AM 9:02 PM
Waning Crescent, 6% visible
METAR KLBF 231953Z AUTO 36021G28KT 10SM OVC070 13/02 A3002 RMK AO2 PK WND 35030/1931 SLP166 T01330017

Get Severe Weather Alerts

Thanks for signing up!

Be on the lookout for a verification email in your inbox.

You'll start receiving the daily forecast at 6 AM.

×

10-Day Weather Forecast

Almanac

Astronomy

May. 23, 2017 Rise Set
Actual Time
Civil Twilight
Nautical Twilight
Astronomical Twilight
Moon
Length of Visible Light
Length of Day
Tomorrow will be .
, % of the Moon is Illuminated

Today's Extremes

State Highs State Lows

Community

WunderPhotos

Category 6

Welcome to Category 6. This is the collective home for Weather Underground's featured writeups by Dr. Jeff Masters (right), Bob Henson (left), Chris Burt, and other regular contributors.

Nearby

Air Quality

  Air Quality AQ Index Pollutant
Not available.

Snow Depth

Station Depth Elevation

Earthquake Activity

City Distance Mag. Time & Date
Minimum magnitude displayed is 2.5.

Coastal Water Temperatures

Place Temperature

Stations

Nearby Weather Stations

Station Location Temp. Windchill Dew Point Humidity Wind Precip. Elev Updated Type
                   

Watches & Warnings

There are currently no watches in effect.